sensor_id;sensor_type;location;lat;lon;timestamp;pressure;altitude;pressure_sealevel;temperature;humidity
41222;BME280;26952;42.884;23.918;2022-09-03T00:00:48;95867.31;;;16.14;100.00
41222;BME280;26952;42.884;23.918;2022-09-03T00:03:23;95870.19;;;16.19;100.00
41222;BME280;26952;42.884;23.918;2022-09-03T00:06:15;95871.00;;;16.26;100.00
41222;BME280;26952;42.884;23.918;2022-09-03T00:08:43;95883.34;;;16.27;100.00
41222;BME280;26952;42.884;23.918;2022-09-03T00:11:23;95871.41;;;16.29;100.00
41222;BME280;26952;42.884;23.918;2022-09-03T00:14:06;95875.13;;;16.35;100.00
41222;BME280;26952;42.884;23.918;2022-09-03T00:17:08;95873.47;;;16.34;100.00
41222;BME280;26952;42.884;23.918;2022-09-03T00:19:40;95860.31;;;16.32;100.00
41222;BME280;26952;42.884;23.918;2022-09-03T00:22:19;95826.66;;;16.05;100.00
41222;BME280;26952;42.884;23.918;2022-09-03T00:24:48;95878.00;;;16.33;100.00
41222;BME280;26952;42.884;23.918;2022-09-03T00:27:21;95864.44;;;16.35;100.00
41222;BME280;26952;42.884;23.918;2022-09-03T00:30:02;95859.09;;;16.35;100.00
41222;BME280;26952;42.884;23.918;2022-09-03T00:35:05;95871.41;;;16.49;100.00
41222;BME280;26952;42.884;23.918;2022-09-03T00:37:34;95877.59;;;16.56;100.00
41222;BME280;26952;42.884;23.918;2022-09-03T00:39:59;95880.03;;;16.57;100.00
41222;BME280;26952;42.884;23.918;2022-09-03T00:45:11;95886.22;;;16.58;100.00
41222;BME280;26952;42.884;23.918;2022-09-03T00:52:56;95886.00;;;16.59;100.00
41222;BME280;26952;42.884;23.918;2022-09-03T00:55:42;95859.53;;;16.45;100.00
41222;BME280;26952;42.884;23.918;2022-09-03T01:00:46;95888.28;;;16.56;100.00
41222;BME280;26952;42.884;23.918;2022-09-03T01:03:31;95892.38;;;16.58;100.00
41222;BME280;26952;42.884;23.918;2022-09-03T01:06:23;95893.19;;;16.59;100.00
41222;BME280;26952;42.884;23.918;2022-09-03T01:09:52;95891.59;;;16.45;100.00
41222;BME280;26952;42.884;23.918;2022-09-03T01:15:14;95886.81;;;16.53;100.00
41222;BME280;26952;42.884;23.918;2022-09-03T01:25:52;95889.09;;;16.70;100.00
41222;BME280;26952;42.884;23.918;2022-09-03T01:31:00;95880.66;;;16.59;100.00
41222;BME280;26952;42.884;23.918;2022-09-03T01:38:50;95871.22;;;16.50;100.00
41222;BME280;26952;42.884;23.918;2022-09-03T01:50:09;95850.03;;;16.29;100.00
41222;BME280;26952;42.884;23.918;2022-09-03T01:52:54;95887.03;;;16.52;100.00
41222;BME280;26952;42.884;23.918;2022-09-03T01:57:53;95867.72;;;16.37;100.00
41222;BME280;26952;42.884;23.918;2022-09-03T02:00:22;95881.69;;;16.45;100.00
41222;BME280;26952;42.884;23.918;2022-09-03T02:02:50;95888.47;;;16.41;100.00
41222;BME280;26952;42.884;23.918;2022-09-03T02:05:21;95891.56;;;16.51;100.00
41222;BME280;26952;42.884;23.918;2022-09-03T02:07:55;95892.38;;;16.52;100.00
41222;BME280;26952;42.884;23.918;2022-09-03T02:10:25;95897.34;;;16.55;100.00
41222;BME280;26952;42.884;23.918;2022-09-03T02:12:59;95851.72;;;16.24;100.00
41222;BME280;26952;42.884;23.918;2022-09-03T02:15:26;95881.28;;;16.42;100.00
41222;BME280;26952;42.884;23.918;2022-09-03T02:17:54;95903.69;;;16.47;100.00
41222;BME280;26952;42.884;23.918;2022-09-03T02:20:26;95889.09;;;16.43;100.00
41222;BME280;26952;42.884;23.918;2022-09-03T02:22:52;95886.00;;;16.40;100.00
41222;BME280;26952;42.884;23.918;2022-09-03T02:25:19;95888.50;;;16.48;100.00
41222;BME280;26952;42.884;23.918;2022-09-03T02:27:48;95880.88;;;16.38;100.00
41222;BME280;26952;42.884;23.918;2022-09-03T02:30:15;95868.16;;;16.34;100.00
41222;BME280;26952;42.884;23.918;2022-09-03T02:32:42;95875.75;;;16.17;100.00
41222;BME280;26952;42.884;23.918;2022-09-03T02:35:08;95875.53;;;16.19;100.00
41222;BME280;26952;42.884;23.918;2022-09-03T02:37:34;95883.56;;;16.06;100.00
41222;BME280;26952;42.884;23.918;2022-09-03T02:39:59;95880.66;;;15.88;100.00
41222;BME280;26952;42.884;23.918;2022-09-03T02:42:25;95892.41;;;15.93;100.00
41222;BME280;26952;42.884;23.918;2022-09-03T02:44:54;95876.97;;;15.89;100.00
41222;BME280;26952;42.884;23.918;2022-09-03T02:47:21;95891.97;;;15.96;100.00
41222;BME280;26952;42.884;23.918;2022-09-03T02:49:47;95883.34;;;15.94;100.00
41222;BME280;26952;42.884;23.918;2022-09-03T02:52:13;95881.72;;;16.00;100.00
41222;BME280;26952;42.884;23.918;2022-09-03T02:54:39;95869.16;;;15.94;100.00
41222;BME280;26952;42.884;23.918;2022-09-03T02:57:09;95887.66;;;16.02;100.00
41222;BME280;26952;42.884;23.918;2022-09-03T02:59:35;95905.13;;;16.17;100.00
41222;BME280;26952;42.884;23.918;2022-09-03T03:02:01;95898.53;;;16.13;100.00
41222;BME280;26952;42.884;23.918;2022-09-03T03:04:29;95872.25;;;16.04;100.00
41222;BME280;26952;42.884;23.918;2022-09-03T03:06:54;95889.09;;;16.11;100.00
41222;BME280;26952;42.884;23.918;2022-09-03T03:09:20;95913.16;;;16.24;100.00
41222;BME280;26952;42.884;23.918;2022-09-03T03:11:45;95911.06;;;16.26;100.00
41222;BME280;26952;42.884;23.918;2022-09-03T03:14:11;95893.41;;;16.12;100.00
41222;BME280;26952;42.884;23.918;2022-09-03T03:16:36;95919.09;;;16.26;100.00
41222;BME280;26952;42.884;23.918;2022-09-03T03:19:02;95924.03;;;16.22;100.00
41222;BME280;26952;42.884;23.918;2022-09-03T03:21:27;95912.09;;;16.12;100.00
41222;BME280;26952;42.884;23.918;2022-09-03T03:23:53;95918.06;;;16.14;100.00
41222;BME280;26952;42.884;23.918;2022-09-03T03:26:19;95900.41;;;16.00;100.00
41222;BME280;26952;42.884;23.918;2022-09-03T03:28:47;95920.13;;;16.12;100.00
41222;BME280;26952;42.884;23.918;2022-09-03T03:31:18;95914.56;;;16.13;100.00
41222;BME280;26952;42.884;23.918;2022-09-03T03:33:50;95915.41;;;16.01;100.00
41222;BME280;26952;42.884;23.918;2022-09-03T03:36:16;95898.53;;;15.87;100.00
41222;BME280;26952;42.884;23.918;2022-09-03T03:38:43;95884.78;;;15.71;100.00
41222;BME280;26952;42.884;23.918;2022-09-03T03:43:40;95903.47;;;15.71;100.00
41222;BME280;26952;42.884;23.918;2022-09-03T03:46:05;95902.41;;;15.72;100.00
41222;BME280;26952;42.884;23.918;2022-09-03T03:48:31;95913.72;;;15.74;100.00
41222;BME280;26952;42.884;23.918;2022-09-03T03:51:03;95889.88;;;15.53;100.00
41222;BME280;26952;42.884;23.918;2022-09-03T03:53:35;95889.88;;;15.53;100.00
41222;BME280;26952;42.884;23.918;2022-09-03T03:56:03;95901.56;;;15.65;100.00
41222;BME280;26952;42.884;23.918;2022-09-03T03:58:30;95895.19;;;15.53;100.00
41222;BME280;26952;42.884;23.918;2022-09-03T04:01:06;95916.56;;;15.59;100.00
41222;BME280;26952;42.884;23.918;2022-09-03T04:03:32;95904.00;;;15.53;100.00
41222;BME280;26952;42.884;23.918;2022-09-03T04:05:58;95906.09;;;15.51;100.00
41222;BME280;26952;42.884;23.918;2022-09-03T04:08:25;95888.38;;;15.44;100.00
41222;BME280;26952;42.884;23.918;2022-09-03T04:10:51;95918.63;;;15.64;100.00
41222;BME280;26952;42.884;23.918;2022-09-03T04:13:16;95893.97;;;15.62;100.00
41222;BME280;26952;42.884;23.918;2022-09-03T04:15:42;95902.19;;;15.67;100.00
41222;BME280;26952;42.884;23.918;2022-09-03T04:18:07;95904.25;;;15.65;100.00
41222;BME280;26952;42.884;23.918;2022-09-03T04:20:35;95909.16;;;15.68;100.00
41222;BME280;26952;42.884;23.918;2022-09-03T04:23:01;95932.41;;;15.74;100.00
41222;BME280;26952;42.884;23.918;2022-09-03T04:25:27;95904.63;;;15.55;100.00
41222;BME280;26952;42.884;23.918;2022-09-03T04:27:52;95874.84;;;15.39;100.00
41222;BME280;26952;42.884;23.918;2022-09-03T04:30:18;95912.03;;;15.66;100.00
41222;BME280;26952;42.884;23.918;2022-09-03T04:32:44;95929.31;;;15.77;100.00
41222;BME280;26952;42.884;23.918;2022-09-03T04:35:21;95926.81;;;15.56;100.00
41222;BME280;26952;42.884;23.918;2022-09-03T04:37:47;95903.00;;;15.48;100.00
41222;BME280;26952;42.884;23.918;2022-09-03T04:40:12;95923.16;;;15.70;100.00
41222;BME280;26952;42.884;23.918;2022-09-03T04:42:38;95910.00;;;15.62;100.00
41222;BME280;26952;42.884;23.918;2022-09-03T04:45:04;95900.94;;;15.50;100.00
41222;BME280;26952;42.884;23.918;2022-09-03T04:47:30;95941.19;;;15.61;100.00
41222;BME280;26952;42.884;23.918;2022-09-03T04:49:56;95923.50;;;15.47;100.00
41222;BME280;26952;42.884;23.918;2022-09-03T04:52:21;95947.34;;;15.62;100.00
41222;BME280;26952;42.884;23.918;2022-09-03T04:54:47;95938.31;;;15.63;100.00
41222;BME280;26952;42.884;23.918;2022-09-03T04:57:12;95954.75;;;15.66;100.00
41222;BME280;26952;42.884;23.918;2022-09-03T04:59:38;95962.53;;;15.68;100.00
41222;BME280;26952;42.884;23.918;2022-09-03T05:02:05;95957.63;;;15.65;100.00
41222;BME280;26952;42.884;23.918;2022-09-03T05:04:31;95960.50;;;15.70;100.00
41222;BME280;26952;42.884;23.918;2022-09-03T05:06:56;95961.53;;;15.69;100.00
41222;BME280;26952;42.884;23.918;2022-09-03T05:09:22;95956.44;;;15.74;100.00
41222;BME280;26952;42.884;23.918;2022-09-03T05:11:48;95964.84;;;15.84;100.00
41222;BME280;26952;42.884;23.918;2022-09-03T05:14:13;95956.03;;;15.83;100.00
41222;BME280;26952;42.884;23.918;2022-09-03T05:16:39;95965.91;;;15.96;100.00
41222;BME280;26952;42.884;23.918;2022-09-03T05:19:04;95946.16;;;15.84;100.00
41222;BME280;26952;42.884;23.918;2022-09-03T05:21:30;95981.53;;;15.99;100.00
41222;BME280;26952;42.884;23.918;2022-09-03T05:23:56;95970.38;;;15.82;100.00
41222;BME280;26952;42.884;23.918;2022-09-03T05:26:26;95973.69;;;15.91;100.00
41222;BME280;26952;42.884;23.918;2022-09-03T05:28:57;95990.16;;;16.01;100.00
41222;BME280;26952;42.884;23.918;2022-09-03T05:31:25;95988.09;;;15.90;100.00
41222;BME280;26952;42.884;23.918;2022-09-03T05:33:54;95996.72;;;15.92;100.00
41222;BME280;26952;42.884;23.918;2022-09-03T05:36:22;95987.19;;;15.70;100.00
41222;BME280;26952;42.884;23.918;2022-09-03T05:38:49;95995.84;;;15.72;100.00
41222;BME280;26952;42.884;23.918;2022-09-03T05:41:15;95941.47;;;15.32;100.00
41222;BME280;26952;42.884;23.918;2022-09-03T05:43:42;95981.19;;;15.55;100.00
41222;BME280;26952;42.884;23.918;2022-09-03T05:46:12;96001.53;;;15.56;100.00
41222;BME280;26952;42.884;23.918;2022-09-03T05:48:39;95971.88;;;15.38;100.00
41222;BME280;26952;42.884;23.918;2022-09-03T05:51:08;96005.63;;;15.58;100.00
41222;BME280;26952;42.884;23.918;2022-09-03T05:53:36;96010.16;;;15.58;100.00
41222;BME280;26952;42.884;23.918;2022-09-03T05:56:06;95988.38;;;15.48;100.00
41222;BME280;26952;42.884;23.918;2022-09-03T05:58:37;95989.78;;;15.50;100.00
41222;BME280;26952;42.884;23.918;2022-09-03T06:01:28;95991.44;;;15.45;100.00
41222;BME280;26952;42.884;23.918;2022-09-03T06:03:58;95984.66;;;15.49;100.00
41222;BME280;26952;42.884;23.918;2022-09-03T06:06:25;95999.88;;;15.61;100.00
41222;BME280;26952;42.884;23.918;2022-09-03T06:08:53;95995.38;;;15.62;100.00
41222;BME280;26952;42.884;23.918;2022-09-03T06:11:20;96001.13;;;15.59;100.00
41222;BME280;26952;42.884;23.918;2022-09-03T06:13:45;96021.66;;;15.65;100.00
41222;BME280;26952;42.884;23.918;2022-09-03T06:16:12;95985.06;;;15.46;100.00
41222;BME280;26952;42.884;23.918;2022-09-03T06:18:37;95998.41;;;15.46;100.00
41222;BME280;26952;42.884;23.918;2022-09-03T06:21:05;96000.28;;;15.52;100.00
41222;BME280;26952;42.884;23.918;2022-09-03T06:23:33;96005.00;;;15.50;100.00
41222;BME280;26952;42.884;23.918;2022-09-03T06:26:06;96014.53;;;15.38;100.00
41222;BME280;26952;42.884;23.918;2022-09-03T06:28:33;96008.00;;;15.40;100.00
41222;BME280;26952;42.884;23.918;2022-09-03T06:31:01;95996.69;;;15.32;100.00
41222;BME280;26952;42.884;23.918;2022-09-03T06:33:32;96004.69;;;15.32;100.00
41222;BME280;26952;42.884;23.918;2022-09-03T06:35:59;96033.13;;;15.52;100.00
41222;BME280;26952;42.884;23.918;2022-09-03T06:38:27;96007.84;;;15.42;100.00
41222;BME280;26952;42.884;23.918;2022-09-03T06:40:54;95977.53;;;15.21;100.00
41222;BME280;26952;42.884;23.918;2022-09-03T06:43:20;96019.56;;;15.54;100.00
41222;BME280;26952;42.884;23.918;2022-09-03T06:45:54;96029.91;;;15.70;100.00
41222;BME280;26952;42.884;23.918;2022-09-03T06:48:20;96008.09;;;15.60;100.00
41222;BME280;26952;42.884;23.918;2022-09-03T06:51:00;96020.66;;;15.66;100.00
41222;BME280;26952;42.884;23.918;2022-09-03T06:53:30;96038.13;;;15.75;100.00
41222;BME280;26952;42.884;23.918;2022-09-03T06:55:59;96018.63;;;15.74;100.00
41222;BME280;26952;42.884;23.918;2022-09-03T06:58:28;95993.97;;;15.66;100.00
41222;BME280;26952;42.884;23.918;2022-09-03T07:01:00;95972.59;;;15.53;100.00
41222;BME280;26952;42.884;23.918;2022-09-03T07:03:25;96037.34;;;15.81;100.00
41222;BME280;26952;42.884;23.918;2022-09-03T07:05:51;96048.06;;;15.94;100.00
41222;BME280;26952;42.884;23.918;2022-09-03T07:08:16;95990.69;;;15.64;100.00
41222;BME280;26952;42.884;23.918;2022-09-03T07:10:44;96036.97;;;15.97;100.00
41222;BME280;26952;42.884;23.918;2022-09-03T07:13:12;96034.75;;;16.07;100.00
41222;BME280;26952;42.884;23.918;2022-09-03T07:15:37;96033.28;;;15.98;100.00
41222;BME280;26952;42.884;23.918;2022-09-03T07:18:05;96035.97;;;15.98;100.00
41222;BME280;26952;42.884;23.918;2022-09-03T07:20:30;96038.66;;;16.11;100.00
41222;BME280;26952;42.884;23.918;2022-09-03T07:22:56;96030.25;;;16.14;100.00
41222;BME280;26952;42.884;23.918;2022-09-03T07:25:23;96032.94;;;16.20;100.00
41222;BME280;26952;42.884;23.918;2022-09-03T07:27:49;96046.75;;;16.37;100.00
41222;BME280;26952;42.884;23.918;2022-09-03T07:30:16;96035.00;;;16.25;100.00
41222;BME280;26952;42.884;23.918;2022-09-03T07:32:42;96035.84;;;16.38;100.00
41222;BME280;26952;42.884;23.918;2022-09-03T07:35:08;96033.81;;;16.47;100.00
41222;BME280;26952;42.884;23.918;2022-09-03T07:37:33;96060.97;;;16.57;100.00
41222;BME280;26952;42.884;23.918;2022-09-03T07:39:59;96026.38;;;16.36;100.00
41222;BME280;26952;42.884;23.918;2022-09-03T07:42:25;96033.78;;;16.34;100.00
41222;BME280;26952;42.884;23.918;2022-09-03T07:44:55;96065.31;;;16.65;100.00
41222;BME280;26952;42.884;23.918;2022-09-03T07:47:20;96050.16;;;16.18;100.00
41222;BME280;26952;42.884;23.918;2022-09-03T07:49:45;96065.75;;;15.95;100.00
41222;BME280;26952;42.884;23.918;2022-09-03T07:52:12;96038.16;;;15.81;100.00
41222;BME280;26952;42.884;23.918;2022-09-03T07:54:37;96062.75;;;16.30;100.00
41222;BME280;26952;42.884;23.918;2022-09-03T07:57:02;96056.88;;;16.61;100.00
41222;BME280;26952;42.884;23.918;2022-09-03T07:59:29;96063.03;;;16.81;100.00
41222;BME280;26952;42.884;23.918;2022-09-03T08:01:55;96049.66;;;16.94;100.00
41222;BME280;26952;42.884;23.918;2022-09-03T08:04:21;96039.94;;;17.26;100.00
41222;BME280;26952;42.884;23.918;2022-09-03T08:06:46;96071.16;;;17.71;100.00
41222;BME280;26952;42.884;23.918;2022-09-03T08:09:13;96060.94;;;17.35;100.00
41222;BME280;26952;42.884;23.918;2022-09-03T08:11:40;96056.03;;;16.87;100.00
41222;BME280;26952;42.884;23.918;2022-09-03T08:14:09;96072.72;;;17.08;100.00
41222;BME280;26952;42.884;23.918;2022-09-03T08:16:41;96050.25;;;17.22;100.00
41222;BME280;26952;42.884;23.918;2022-09-03T08:19:07;96058.84;;;17.63;100.00
41222;BME280;26952;42.884;23.918;2022-09-03T08:21:33;96061.22;;;17.84;100.00
41222;BME280;26952;42.884;23.918;2022-09-03T08:23:58;96067.94;;;18.00;100.00
41222;BME280;26952;42.884;23.918;2022-09-03T08:26:29;96058.03;;;17.56;100.00
41222;BME280;26952;42.884;23.918;2022-09-03T08:28:55;96012.50;;;17.56;100.00
41222;BME280;26952;42.884;23.918;2022-09-03T08:31:22;96054.38;;;17.95;100.00
41222;BME280;26952;42.884;23.918;2022-09-03T08:33:51;96053.84;;;18.18;100.00
41222;BME280;26952;42.884;23.918;2022-09-03T08:36:28;96075.41;;;18.36;100.00
41222;BME280;26952;42.884;23.918;2022-09-03T08:38:55;96067.31;;;18.49;100.00
41222;BME280;26952;42.884;23.918;2022-09-03T08:46:58;96063.22;;;18.71;100.00
41222;BME280;26952;42.884;23.918;2022-09-03T08:52:10;96065.97;;;18.27;100.00
41222;BME280;26952;42.884;23.918;2022-09-03T08:54:41;96064.88;;;18.41;100.00
41222;BME280;26952;42.884;23.918;2022-09-03T08:57:07;96072.06;;;18.47;100.00
41222;BME280;26952;42.884;23.918;2022-09-03T08:59:33;96071.78;;;18.24;100.00
41222;BME280;26952;42.884;23.918;2022-09-03T09:05:36;96068.06;;;17.74;100.00
41222;BME280;26952;42.884;23.918;2022-09-03T09:11:01;96075.72;;;17.57;100.00
41222;BME280;26952;42.884;23.918;2022-09-03T09:13:39;96042.88;;;17.11;100.00
41222;BME280;26952;42.884;23.918;2022-09-03T09:18:42;96070.59;;;17.30;100.00
41222;BME280;26952;42.884;23.918;2022-09-03T09:21:17;96050.66;;;17.19;100.00
41222;BME280;26952;42.884;23.918;2022-09-03T09:23:47;96056.84;;;17.20;100.00
41222;BME280;26952;42.884;23.918;2022-09-03T09:26:19;96055.38;;;17.30;100.00
41222;BME280;26952;42.884;23.918;2022-09-03T09:28:49;96067.09;;;17.55;100.00
41222;BME280;26952;42.884;23.918;2022-09-03T09:31:18;96084.72;;;17.82;100.00
41222;BME280;26952;42.884;23.918;2022-09-03T09:33:44;96030.47;;;17.30;100.00
41222;BME280;26952;42.884;23.918;2022-09-03T09:36:14;96065.38;;;17.74;100.00
41222;BME280;26952;42.884;23.918;2022-09-03T09:38:42;96073.56;;;17.85;100.00
41222;BME280;26952;42.884;23.918;2022-09-03T09:41:18;96096.53;;;18.13;100.00
41222;BME280;26952;42.884;23.918;2022-09-03T09:43:45;96091.31;;;17.73;100.00
41222;BME280;26952;42.884;23.918;2022-09-03T09:46:20;96090.03;;;17.95;100.00
41222;BME280;26952;42.884;23.918;2022-09-03T09:48:51;96089.16;;;18.08;100.00
41222;BME280;26952;42.884;23.918;2022-09-03T09:51:21;96097.28;;;18.33;100.00
41222;BME280;26952;42.884;23.918;2022-09-03T09:53:47;96076.56;;;18.53;100.00
41222;BME280;26952;42.884;23.918;2022-09-03T09:56:25;96092.47;;;18.79;100.00
41222;BME280;26952;42.884;23.918;2022-09-03T10:01:28;96093.28;;;18.79;100.00
41222;BME280;26952;42.884;23.918;2022-09-03T10:03:58;96082.16;;;18.76;100.00
41222;BME280;26952;42.884;23.918;2022-09-03T10:06:26;96084.50;;;18.97;100.00
41222;BME280;26952;42.884;23.918;2022-09-03T10:09:17;96057.09;;;19.13;100.00
41222;BME280;26952;42.884;23.918;2022-09-03T10:11:49;96101.19;;;19.73;100.00
41222;BME280;26952;42.884;23.918;2022-09-03T10:14:28;96090.38;;;19.79;100.00
41222;BME280;26952;42.884;23.918;2022-09-03T10:17:04;96080.09;;;20.06;100.00
41222;BME280;26952;42.884;23.918;2022-09-03T10:19:48;96106.16;;;20.41;100.00
41222;BME280;26952;42.884;23.918;2022-09-03T10:22:40;96108.53;;;20.49;100.00
41222;BME280;26952;42.884;23.918;2022-09-03T10:25:12;96098.81;;;20.48;100.00
41222;BME280;26952;42.884;23.918;2022-09-03T10:27:39;96060.28;;;20.36;100.00
41222;BME280;26952;42.884;23.918;2022-09-03T10:30:05;96086.13;;;20.67;100.00
41222;BME280;26952;42.884;23.918;2022-09-03T10:35:32;96102.41;;;21.02;100.00
41222;BME280;26952;42.884;23.918;2022-09-03T10:46:10;96096.44;;;22.15;97.27
41222;BME280;26952;42.884;23.918;2022-09-03T10:51:41;96090.41;;;22.36;100.00
41222;BME280;26952;42.884;23.918;2022-09-03T10:54:49;96101.50;;;22.79;96.12
41222;BME280;26952;42.884;23.918;2022-09-03T11:00:09;96091.06;;;22.99;87.01
41222;BME280;26952;42.884;23.918;2022-09-03T11:05:46;96106.50;;;22.87;93.66
41222;BME280;26952;42.884;23.918;2022-09-03T11:08:24;96087.53;;;22.99;89.07
41222;BME280;26952;42.884;23.918;2022-09-03T11:11:16;96104.66;;;23.04;86.66
41222;BME280;26952;42.884;23.918;2022-09-03T11:14:08;96104.56;;;23.27;88.11
41222;BME280;26952;42.884;23.918;2022-09-03T11:16:43;96087.94;;;23.36;84.56
41222;BME280;26952;42.884;23.918;2022-09-03T11:19:13;96108.78;;;23.23;82.43
41222;BME280;26952;42.884;23.918;2022-09-03T11:21:41;96099.84;;;23.06;84.83
41222;BME280;26952;42.884;23.918;2022-09-03T11:24:26;96106.25;;;22.72;84.89
41222;BME280;26952;42.884;23.918;2022-09-03T11:27:04;96090.16;;;21.75;89.97
41222;BME280;26952;42.884;23.918;2022-09-03T11:29:50;96092.03;;;21.63;93.21
41222;BME280;26952;42.884;23.918;2022-09-03T11:32:22;96101.41;;;21.60;93.38
41222;BME280;26952;42.884;23.918;2022-09-03T11:34:50;96115.44;;;21.74;99.27
41222;BME280;26952;42.884;23.918;2022-09-03T11:39:42;96105.88;;;21.89;90.88
41222;BME280;26952;42.884;23.918;2022-09-03T11:42:11;96117.06;;;22.10;96.26
41222;BME280;26952;42.884;23.918;2022-09-03T11:44:49;96096.72;;;21.33;95.07
41222;BME280;26952;42.884;23.918;2022-09-03T11:47:26;96103.97;;;21.21;98.42
41222;BME280;26952;42.884;23.918;2022-09-03T11:50:17;96100.34;;;21.38;95.85
41222;BME280;26952;42.884;23.918;2022-09-03T11:52:45;96111.78;;;21.11;97.52
41222;BME280;26952;42.884;23.918;2022-09-03T11:55:11;96117.66;;;20.78;100.00
41222;BME280;26952;42.884;23.918;2022-09-03T11:57:41;96109.88;;;20.58;100.00
41222;BME280;26952;42.884;23.918;2022-09-03T12:00:15;96110.94;;;20.39;100.00
41222;BME280;26952;42.884;23.918;2022-09-03T12:03:00;96112.97;;;19.90;100.00
41222;BME280;26952;42.884;23.918;2022-09-03T12:05:34;96133.03;;;20.05;100.00
41222;BME280;26952;42.884;23.918;2022-09-03T12:16:58;96126.75;;;19.75;100.00
41222;BME280;26952;42.884;23.918;2022-09-03T12:22:05;96112.88;;;20.50;100.00
41222;BME280;26952;42.884;23.918;2022-09-03T12:24:31;96101.59;;;20.72;100.00
41222;BME280;26952;42.884;23.918;2022-09-03T12:27:00;96114.28;;;20.83;100.00
41222;BME280;26952;42.884;23.918;2022-09-03T12:29:29;96107.31;;;21.05;100.00
41222;BME280;26952;42.884;23.918;2022-09-03T12:31:55;96109.59;;;21.31;93.99
41222;BME280;26952;42.884;23.918;2022-09-03T12:34:22;96109.47;;;21.26;97.66
41222;BME280;26952;42.884;23.918;2022-09-03T12:36:52;96104.81;;;21.33;92.89
41222;BME280;26952;42.884;23.918;2022-09-03T12:39:20;96111.72;;;21.63;91.48
41222;BME280;26952;42.884;23.918;2022-09-03T12:42:01;96110.78;;;21.92;93.53
41222;BME280;26952;42.884;23.918;2022-09-03T12:47:14;96091.19;;;22.48;85.26
41222;BME280;26952;42.884;23.918;2022-09-03T12:49:48;96076.22;;;22.69;84.78
41222;BME280;26952;42.884;23.918;2022-09-03T12:52:29;96092.03;;;22.77;83.95
41222;BME280;26952;42.884;23.918;2022-09-03T12:57:44;96074.81;;;22.66;80.02
41222;BME280;26952;42.884;23.918;2022-09-03T13:00:15;96083.09;;;22.76;76.79
41222;BME280;26952;42.884;23.918;2022-09-03T13:05:33;96087.34;;;22.72;78.33
41222;BME280;26952;42.884;23.918;2022-09-03T13:08:01;96085.84;;;22.65;78.16
41222;BME280;26952;42.884;23.918;2022-09-03T13:10:38;96089.81;;;22.74;79.38
41222;BME280;26952;42.884;23.918;2022-09-03T13:13:24;96077.06;;;22.86;75.85
41222;BME280;26952;42.884;23.918;2022-09-03T13:30:12;96075.75;;;21.58;89.22
41222;BME280;26952;42.884;23.918;2022-09-03T13:35:16;96058.28;;;21.72;87.73
41222;BME280;26952;42.884;23.918;2022-09-03T13:37:58;96083.69;;;21.99;87.29
41222;BME280;26952;42.884;23.918;2022-09-03T13:40:43;96067.56;;;21.76;83.90
41222;BME280;26952;42.884;23.918;2022-09-03T13:46:11;96077.72;;;21.97;87.22
41222;BME280;26952;42.884;23.918;2022-09-03T13:48:43;96060.16;;;21.60;90.45
41222;BME280;26952;42.884;23.918;2022-09-03T13:51:50;96067.78;;;21.17;94.62
41222;BME280;26952;42.884;23.918;2022-09-03T13:54:23;96052.66;;;21.04;98.67
41222;BME280;26952;42.884;23.918;2022-09-03T14:05:03;96084.50;;;20.36;97.95
41222;BME280;26952;42.884;23.918;2022-09-03T14:15:51;96048.38;;;20.32;100.00
41222;BME280;26952;42.884;23.918;2022-09-03T14:20:55;96071.94;;;20.48;99.77
41222;BME280;26952;42.884;23.918;2022-09-03T14:26:16;96074.53;;;20.55;97.78
41222;BME280;26952;42.884;23.918;2022-09-03T14:28:47;96073.72;;;20.36;96.18
41222;BME280;26952;42.884;23.918;2022-09-03T14:31:48;96088.25;;;20.65;100.00
41222;BME280;26952;42.884;23.918;2022-09-03T14:34:35;96091.22;;;20.87;100.00
41222;BME280;26952;42.884;23.918;2022-09-03T14:39:55;96091.53;;;21.08;100.00
41222;BME280;26952;42.884;23.918;2022-09-03T14:50:40;96082.78;;;21.36;100.00
41222;BME280;26952;42.884;23.918;2022-09-03T14:53:25;96085.47;;;21.36;100.00
41222;BME280;26952;42.884;23.918;2022-09-03T15:05:06;96083.50;;;21.31;100.00
41222;BME280;26952;42.884;23.918;2022-09-03T15:12:52;96074.81;;;21.18;100.00
41222;BME280;26952;42.884;23.918;2022-09-03T15:20:51;96072.88;;;20.95;100.00
41222;BME280;26952;42.884;23.918;2022-09-03T15:36:57;96087.91;;;20.73;100.00
41222;BME280;26952;42.884;23.918;2022-09-03T15:39:32;96078.13;;;20.49;100.00
41222;BME280;26952;42.884;23.918;2022-09-03T15:42:05;96096.72;;;20.50;100.00
41222;BME280;26952;42.884;23.918;2022-09-03T15:44:38;96091.84;;;20.29;100.00
41222;BME280;26952;42.884;23.918;2022-09-03T15:47:08;96098.09;;;20.23;100.00
41222;BME280;26952;42.884;23.918;2022-09-03T15:55:22;96096.47;;;20.04;100.00
41222;BME280;26952;42.884;23.918;2022-09-03T15:57:57;96086.47;;;19.93;100.00
41222;BME280;26952;42.884;23.918;2022-09-03T16:03:08;96095.72;;;19.79;100.00
41222;BME280;26952;42.884;23.918;2022-09-03T16:05:41;96084.16;;;19.79;100.00
41222;BME280;26952;42.884;23.918;2022-09-03T16:08:23;96082.22;;;19.68;100.00
41222;BME280;26952;42.884;23.918;2022-09-03T16:19:43;96106.75;;;19.53;100.00
41222;BME280;26952;42.884;23.918;2022-09-03T16:22:20;96076.78;;;19.32;100.00
41222;BME280;26952;42.884;23.918;2022-09-03T16:24:53;96087.31;;;19.33;100.00
41222;BME280;26952;42.884;23.918;2022-09-03T16:27:23;96106.25;;;19.38;100.00
41222;BME280;26952;42.884;23.918;2022-09-03T16:30:06;96077.09;;;19.17;100.00